sensor_id;sensor_type;location;lat;lon;timestamp;temperature;humidity
21403;DHT22;10862;51.886;17.078;2022-10-19T00:01:01;11.50;99.90
21403;DHT22;10862;51.886;17.078;2022-10-19T00:03:27;11.50;99.90
21403;DHT22;10862;51.886;17.078;2022-10-19T00:05:53;11.50;99.90
21403;DHT22;10862;51.886;17.078;2022-10-19T00:08:18;11.40;99.90
21403;DHT22;10862;51.886;17.078;2022-10-19T00:10:44;11.40;99.90
21403;DHT22;10862;51.886;17.078;2022-10-19T00:13:09;11.60;99.90
21403;DHT22;10862;51.886;17.078;2022-10-19T00:15:38;11.40;99.90
21403;DHT22;10862;51.886;17.078;2022-10-19T00:18:05;11.30;99.90
21403;DHT22;10862;51.886;17.078;2022-10-19T00:20:30;11.30;99.90
21403;DHT22;10862;51.886;17.078;2022-10-19T00:22:56;11.30;99.90
21403;DHT22;10862;51.886;17.078;2022-10-19T00:25:22;11.30;99.90
21403;DHT22;10862;51.886;17.078;2022-10-19T00:27:47;11.30;99.90
21403;DHT22;10862;51.886;17.078;2022-10-19T00:30:13;11.30;99.90
21403;DHT22;10862;51.886;17.078;2022-10-19T00:32:38;11.30;99.90
21403;DHT22;10862;51.886;17.078;2022-10-19T00:35:04;11.30;99.90
21403;DHT22;10862;51.886;17.078;2022-10-19T00:37:30;11.20;99.90
21403;DHT22;10862;51.886;17.078;2022-10-19T00:39:55;11.10;99.90
21403;DHT22;10862;51.886;17.078;2022-10-19T00:42:21;11.20;99.90
21403;DHT22;10862;51.886;17.078;2022-10-19T00:47:11;11.20;99.90
21403;DHT22;10862;51.886;17.078;2022-10-19T00:49:38;11.10;99.90
21403;DHT22;10862;51.886;17.078;2022-10-19T00:52:10;11.20;99.90
21403;DHT22;10862;51.886;17.078;2022-10-19T00:54:37;11.20;99.90
21403;DHT22;10862;51.886;17.078;2022-10-19T00:57:03;11.20;99.90
21403;DHT22;10862;51.886;17.078;2022-10-19T00:59:29;11.30;99.90
21403;DHT22;10862;51.886;17.078;2022-10-19T01:01:58;11.30;99.90
21403;DHT22;10862;51.886;17.078;2022-10-19T01:04:25;11.30;99.90
21403;DHT22;10862;51.886;17.078;2022-10-19T01:06:53;11.40;99.90
21403;DHT22;10862;51.886;17.078;2022-10-19T01:09:19;11.30;99.90
21403;DHT22;10862;51.886;17.078;2022-10-19T01:11:47;11.40;99.90
21403;DHT22;10862;51.886;17.078;2022-10-19T01:14:22;11.30;99.90
21403;DHT22;10862;51.886;17.078;2022-10-19T01:16:56;11.40;99.90
21403;DHT22;10862;51.886;17.078;2022-10-19T01:21:59;11.40;99.90
21403;DHT22;10862;51.886;17.078;2022-10-19T01:32:18;11.30;99.90
21403;DHT22;10862;51.886;17.078;2022-10-19T01:34:48;11.30;99.90
21403;DHT22;10862;51.886;17.078;2022-10-19T01:37:22;11.30;99.90
21403;DHT22;10862;51.886;17.078;2022-10-19T01:39:51;11.30;99.90
21403;DHT22;10862;51.886;17.078;2022-10-19T01:42:21;11.30;99.90
21403;DHT22;10862;51.886;17.078;2022-10-19T01:44:54;11.20;99.90
21403;DHT22;10862;51.886;17.078;2022-10-19T01:47:22;11.30;99.90
21403;DHT22;10862;51.886;17.078;2022-10-19T01:49:55;11.30;99.90
21403;DHT22;10862;51.886;17.078;2022-10-19T01:52:21;11.20;99.90
21403;DHT22;10862;51.886;17.078;2022-10-19T01:54:49;11.30;99.90
21403;DHT22;10862;51.886;17.078;2022-10-19T01:57:19;11.30;99.90
21403;DHT22;10862;51.886;17.078;2022-10-19T01:59:45;11.30;99.90
21403;DHT22;10862;51.886;17.078;2022-10-19T02:02:11;11.30;99.90
21403;DHT22;10862;51.886;17.078;2022-10-19T02:04:37;11.30;99.90
21403;DHT22;10862;51.886;17.078;2022-10-19T02:07:03;11.20;99.90
21403;DHT22;10862;51.886;17.078;2022-10-19T02:09:29;11.20;99.90
21403;DHT22;10862;51.886;17.078;2022-10-19T02:11:55;11.20;99.90
21403;DHT22;10862;51.886;17.078;2022-10-19T02:14:23;11.20;99.90
21403;DHT22;10862;51.886;17.078;2022-10-19T02:16:50;11.20;99.90
21403;DHT22;10862;51.886;17.078;2022-10-19T02:19:17;11.10;99.90
21403;DHT22;10862;51.886;17.078;2022-10-19T02:21:43;11.20;99.90
21403;DHT22;10862;51.886;17.078;2022-10-19T02:24:09;11.30;99.90
21403;DHT22;10862;51.886;17.078;2022-10-19T02:26:34;11.10;99.90
21403;DHT22;10862;51.886;17.078;2022-10-19T02:29:00;11.10;99.90
21403;DHT22;10862;51.886;17.078;2022-10-19T02:31:25;11.10;99.90
21403;DHT22;10862;51.886;17.078;2022-10-19T02:33:51;11.10;99.90
21403;DHT22;10862;51.886;17.078;2022-10-19T02:36:17;11.10;99.90
21403;DHT22;10862;51.886;17.078;2022-10-19T02:38:42;11.10;99.90
21403;DHT22;10862;51.886;17.078;2022-10-19T02:41:16;11.10;99.90
21403;DHT22;10862;51.886;17.078;2022-10-19T02:43:43;11.10;99.90
21403;DHT22;10862;51.886;17.078;2022-10-19T02:46:10;11.10;99.90
21403;DHT22;10862;51.886;17.078;2022-10-19T02:48:38;11.10;99.90
21403;DHT22;10862;51.886;17.078;2022-10-19T02:51:03;11.10;99.90
21403;DHT22;10862;51.886;17.078;2022-10-19T02:53:29;11.10;99.90
21403;DHT22;10862;51.886;17.078;2022-10-19T02:55:54;11.00;99.90
21403;DHT22;10862;51.886;17.078;2022-10-19T02:58:20;11.00;99.90
21403;DHT22;10862;51.886;17.078;2022-10-19T03:00:45;11.00;99.90
21403;DHT22;10862;51.886;17.078;2022-10-19T03:03:11;11.00;99.90
21403;DHT22;10862;51.886;17.078;2022-10-19T03:05:36;11.00;99.90
21403;DHT22;10862;51.886;17.078;2022-10-19T03:08:02;11.00;99.90
21403;DHT22;10862;51.886;17.078;2022-10-19T03:10:27;11.00;99.90
21403;DHT22;10862;51.886;17.078;2022-10-19T03:12:55;11.00;99.90
21403;DHT22;10862;51.886;17.078;2022-10-19T03:15:21;11.00;99.90
21403;DHT22;10862;51.886;17.078;2022-10-19T03:17:51;10.90;99.90
21403;DHT22;10862;51.886;17.078;2022-10-19T03:20:16;10.90;99.90
21403;DHT22;10862;51.886;17.078;2022-10-19T03:22:42;10.90;99.90
21403;DHT22;10862;51.886;17.078;2022-10-19T03:25:07;11.00;99.90
21403;DHT22;10862;51.886;17.078;2022-10-19T03:27:33;10.90;99.90
21403;DHT22;10862;51.886;17.078;2022-10-19T03:29:58;10.90;99.90
21403;DHT22;10862;51.886;17.078;2022-10-19T03:32:24;10.90;99.90
21403;DHT22;10862;51.886;17.078;2022-10-19T03:34:49;10.90;99.90
21403;DHT22;10862;51.886;17.078;2022-10-19T03:37:15;10.80;99.90
21403;DHT22;10862;51.886;17.078;2022-10-19T03:39:40;10.80;99.90
21403;DHT22;10862;51.886;17.078;2022-10-19T03:42:06;10.90;99.90
21403;DHT22;10862;51.886;17.078;2022-10-19T03:44:31;10.80;99.90
21403;DHT22;10862;51.886;17.078;2022-10-19T03:46:57;10.90;99.90
21403;DHT22;10862;51.886;17.078;2022-10-19T03:49:22;10.80;99.90
21403;DHT22;10862;51.886;17.078;2022-10-19T03:51:48;10.80;99.90
21403;DHT22;10862;51.886;17.078;2022-10-19T03:54:14;10.80;99.90
21403;DHT22;10862;51.886;17.078;2022-10-19T03:56:39;10.80;99.90
21403;DHT22;10862;51.886;17.078;2022-10-19T03:59:05;10.80;99.90
21403;DHT22;10862;51.886;17.078;2022-10-19T04:01:35;10.80;99.90
21403;DHT22;10862;51.886;17.078;2022-10-19T04:04:05;10.80;99.90
21403;DHT22;10862;51.886;17.078;2022-10-19T04:06:32;10.80;99.90
21403;DHT22;10862;51.886;17.078;2022-10-19T04:08:58;10.80;99.90
21403;DHT22;10862;51.886;17.078;2022-10-19T04:11:24;10.70;99.90
21403;DHT22;10862;51.886;17.078;2022-10-19T04:13:51;10.70;99.90
21403;DHT22;10862;51.886;17.078;2022-10-19T04:16:17;10.70;99.90
21403;DHT22;10862;51.886;17.078;2022-10-19T04:18:43;10.70;99.90
21403;DHT22;10862;51.886;17.078;2022-10-19T04:21:16;10.80;99.90
21403;DHT22;10862;51.886;17.078;2022-10-19T04:23:43;10.90;99.90
21403;DHT22;10862;51.886;17.078;2022-10-19T04:26:08;10.70;99.90
21403;DHT22;10862;51.886;17.078;2022-10-19T04:28:34;10.70;99.90
21403;DHT22;10862;51.886;17.078;2022-10-19T04:31:03;10.70;99.90
21403;DHT22;10862;51.886;17.078;2022-10-19T04:33:29;10.70;99.90
21403;DHT22;10862;51.886;17.078;2022-10-19T04:35:57;10.70;99.90
21403;DHT22;10862;51.886;17.078;2022-10-19T04:38:23;10.70;99.90
21403;DHT22;10862;51.886;17.078;2022-10-19T04:40:49;10.70;99.90
21403;DHT22;10862;51.886;17.078;2022-10-19T04:43:14;10.70;99.90
21403;DHT22;10862;51.886;17.078;2022-10-19T04:45:40;10.70;99.90
21403;DHT22;10862;51.886;17.078;2022-10-19T04:48:05;10.70;99.90
21403;DHT22;10862;51.886;17.078;2022-10-19T04:50:31;10.70;99.90
21403;DHT22;10862;51.886;17.078;2022-10-19T04:52:56;10.60;99.90
21403;DHT22;10862;51.886;17.078;2022-10-19T04:55:21;10.60;99.90
21403;DHT22;10862;51.886;17.078;2022-10-19T04:57:47;10.60;99.90
21403;DHT22;10862;51.886;17.078;2022-10-19T05:00:13;10.60;99.90
21403;DHT22;10862;51.886;17.078;2022-10-19T05:02:42;10.60;99.90
21403;DHT22;10862;51.886;17.078;2022-10-19T05:05:09;10.60;99.90
21403;DHT22;10862;51.886;17.078;2022-10-19T05:07:34;10.60;99.90
21403;DHT22;10862;51.886;17.078;2022-10-19T05:09:59;10.50;99.90
21403;DHT22;10862;51.886;17.078;2022-10-19T05:12:25;10.50;99.90
21403;DHT22;10862;51.886;17.078;2022-10-19T05:14:50;10.50;99.90
21403;DHT22;10862;51.886;17.078;2022-10-19T05:17:16;10.50;99.90
21403;DHT22;10862;51.886;17.078;2022-10-19T05:19:41;10.60;99.90
21403;DHT22;10862;51.886;17.078;2022-10-19T05:22:07;10.50;99.90
21403;DHT22;10862;51.886;17.078;2022-10-19T05:24:33;10.50;99.90
21403;DHT22;10862;51.886;17.078;2022-10-19T05:26:58;10.50;99.90
21403;DHT22;10862;51.886;17.078;2022-10-19T05:29:24;10.50;99.90
21403;DHT22;10862;51.886;17.078;2022-10-19T05:31:49;10.50;99.90
21403;DHT22;10862;51.886;17.078;2022-10-19T05:34:14;10.50;99.90
21403;DHT22;10862;51.886;17.078;2022-10-19T05:36:40;10.50;99.90
21403;DHT22;10862;51.886;17.078;2022-10-19T05:39:07;10.50;99.90
21403;DHT22;10862;51.886;17.078;2022-10-19T05:41:33;10.40;99.90
21403;DHT22;10862;51.886;17.078;2022-10-19T05:44:00;10.50;99.90
21403;DHT22;10862;51.886;17.078;2022-10-19T05:46:26;10.50;99.90
21403;DHT22;10862;51.886;17.078;2022-10-19T05:48:52;10.50;99.90
21403;DHT22;10862;51.886;17.078;2022-10-19T05:51:19;10.50;99.90
21403;DHT22;10862;51.886;17.078;2022-10-19T05:53:45;10.50;99.90
21403;DHT22;10862;51.886;17.078;2022-10-19T05:56:15;10.50;99.90
21403;DHT22;10862;51.886;17.078;2022-10-19T05:58:40;10.50;99.90
21403;DHT22;10862;51.886;17.078;2022-10-19T06:01:06;10.40;99.90
21403;DHT22;10862;51.886;17.078;2022-10-19T06:03:32;10.40;99.90
21403;DHT22;10862;51.886;17.078;2022-10-19T06:06:00;10.50;99.90
21403;DHT22;10862;51.886;17.078;2022-10-19T06:08:26;10.50;99.90
21403;DHT22;10862;51.886;17.078;2022-10-19T06:10:52;10.50;99.90
21403;DHT22;10862;51.886;17.078;2022-10-19T06:13:18;10.50;99.90
21403;DHT22;10862;51.886;17.078;2022-10-19T06:15:43;10.40;99.90
21403;DHT22;10862;51.886;17.078;2022-10-19T06:18:10;10.50;99.90
21403;DHT22;10862;51.886;17.078;2022-10-19T06:20:39;10.50;99.90
21403;DHT22;10862;51.886;17.078;2022-10-19T06:23:05;10.50;99.90
21403;DHT22;10862;51.886;17.078;2022-10-19T06:25:31;10.40;99.90
21403;DHT22;10862;51.886;17.078;2022-10-19T06:27:57;10.50;99.90
21403;DHT22;10862;51.886;17.078;2022-10-19T06:30:22;10.50;99.90
21403;DHT22;10862;51.886;17.078;2022-10-19T06:32:48;10.50;99.90
21403;DHT22;10862;51.886;17.078;2022-10-19T06:35:14;10.50;99.90
21403;DHT22;10862;51.886;17.078;2022-10-19T06:37:40;10.50;99.90
21403;DHT22;10862;51.886;17.078;2022-10-19T06:40:06;10.50;99.90
21403;DHT22;10862;51.886;17.078;2022-10-19T06:42:31;10.50;99.90
21403;DHT22;10862;51.886;17.078;2022-10-19T06:44:57;10.50;99.90
21403;DHT22;10862;51.886;17.078;2022-10-19T06:47:22;10.60;99.90
21403;DHT22;10862;51.886;17.078;2022-10-19T06:49:55;10.70;99.90
21403;DHT22;10862;51.886;17.078;2022-10-19T06:52:21;10.60;99.90
21403;DHT22;10862;51.886;17.078;2022-10-19T06:54:46;10.60;99.90
21403;DHT22;10862;51.886;17.078;2022-10-19T06:57:11;10.60;99.90
21403;DHT22;10862;51.886;17.078;2022-10-19T06:59:37;10.60;99.90
21403;DHT22;10862;51.886;17.078;2022-10-19T07:02:03;10.60;99.90
21403;DHT22;10862;51.886;17.078;2022-10-19T07:04:28;10.60;99.90
21403;DHT22;10862;51.886;17.078;2022-10-19T07:06:54;10.50;99.90
21403;DHT22;10862;51.886;17.078;2022-10-19T07:09:19;10.70;99.90
21403;DHT22;10862;51.886;17.078;2022-10-19T07:11:46;10.70;99.90
21403;DHT22;10862;51.886;17.078;2022-10-19T07:14:12;10.80;99.90
21403;DHT22;10862;51.886;17.078;2022-10-19T07:16:38;10.70;99.90
21403;DHT22;10862;51.886;17.078;2022-10-19T07:19:03;10.70;99.90
21403;DHT22;10862;51.886;17.078;2022-10-19T07:21:29;10.70;99.90
21403;DHT22;10862;51.886;17.078;2022-10-19T07:23:54;10.70;99.90
21403;DHT22;10862;51.886;17.078;2022-10-19T07:26:21;10.70;99.90
21403;DHT22;10862;51.886;17.078;2022-10-19T07:28:48;10.70;99.90
21403;DHT22;10862;51.886;17.078;2022-10-19T07:31:15;10.70;99.90
21403;DHT22;10862;51.886;17.078;2022-10-19T07:33:42;10.80;99.90
21403;DHT22;10862;51.886;17.078;2022-10-19T07:36:08;10.80;99.90
21403;DHT22;10862;51.886;17.078;2022-10-19T07:38:34;10.80;99.90
21403;DHT22;10862;51.886;17.078;2022-10-19T07:41:10;10.80;99.90
21403;DHT22;10862;51.886;17.078;2022-10-19T07:43:41;10.70;99.90
21403;DHT22;10862;51.886;17.078;2022-10-19T07:46:08;10.90;99.90
21403;DHT22;10862;51.886;17.078;2022-10-19T07:48:34;10.90;99.90
21403;DHT22;10862;51.886;17.078;2022-10-19T07:51:00;11.00;99.90
21403;DHT22;10862;51.886;17.078;2022-10-19T07:53:25;11.00;99.90
21403;DHT22;10862;51.886;17.078;2022-10-19T07:55:51;11.10;99.90
21403;DHT22;10862;51.886;17.078;2022-10-19T07:58:16;11.20;99.90
21403;DHT22;10862;51.886;17.078;2022-10-19T08:00:42;11.20;99.90
21403;DHT22;10862;51.886;17.078;2022-10-19T08:03:07;11.30;99.90
21403;DHT22;10862;51.886;17.078;2022-10-19T08:05:33;11.30;99.90
21403;DHT22;10862;51.886;17.078;2022-10-19T08:07:58;11.30;99.90
21403;DHT22;10862;51.886;17.078;2022-10-19T08:10:24;11.40;99.90
21403;DHT22;10862;51.886;17.078;2022-10-19T08:12:49;11.40;99.90
21403;DHT22;10862;51.886;17.078;2022-10-19T08:15:15;11.40;99.90
21403;DHT22;10862;51.886;17.078;2022-10-19T08:17:41;11.50;99.90
21403;DHT22;10862;51.886;17.078;2022-10-19T08:20:06;11.60;99.90
21403;DHT22;10862;51.886;17.078;2022-10-19T08:22:32;11.60;99.90
21403;DHT22;10862;51.886;17.078;2022-10-19T08:24:57;11.60;99.90
21403;DHT22;10862;51.886;17.078;2022-10-19T08:27:23;11.60;99.90
21403;DHT22;10862;51.886;17.078;2022-10-19T08:29:48;11.60;99.90
21403;DHT22;10862;51.886;17.078;2022-10-19T08:32:16;11.60;99.90
21403;DHT22;10862;51.886;17.078;2022-10-19T08:34:41;11.60;99.90
21403;DHT22;10862;51.886;17.078;2022-10-19T08:37:07;11.60;99.90
21403;DHT22;10862;51.886;17.078;2022-10-19T08:39:32;11.70;99.90
21403;DHT22;10862;51.886;17.078;2022-10-19T08:42:00;11.80;99.90
21403;DHT22;10862;51.886;17.078;2022-10-19T08:45:27;11.80;99.90
21403;DHT22;10862;51.886;17.078;2022-10-19T08:47:32;11.50;99.90
21403;DHT22;10862;51.886;17.078;2022-10-19T08:50:00;11.50;99.90
21403;DHT22;10862;51.886;17.078;2022-10-19T08:52:28;11.40;99.90
21403;DHT22;10862;51.886;17.078;2022-10-19T08:59:50;11.30;99.90
21403;DHT22;10862;51.886;17.078;2022-10-19T09:05:04;11.30;99.90
21403;DHT22;10862;51.886;17.078;2022-10-19T09:07:35;11.30;99.90
21403;DHT22;10862;51.886;17.078;2022-10-19T09:12:41;11.20;99.90
21403;DHT22;10862;51.886;17.078;2022-10-19T09:15:19;11.30;99.90
21403;DHT22;10862;51.886;17.078;2022-10-19T09:17:46;11.30;99.90
21403;DHT22;10862;51.886;17.078;2022-10-19T09:20:19;11.40;99.90
21403;DHT22;10862;51.886;17.078;2022-10-19T09:22:48;11.40;99.90
21403;DHT22;10862;51.886;17.078;2022-10-19T09:25:19;11.40;99.90
21403;DHT22;10862;51.886;17.078;2022-10-19T09:27:46;11.50;99.90
21403;DHT22;10862;51.886;17.078;2022-10-19T09:30:19;11.50;99.90
21403;DHT22;10862;51.886;17.078;2022-10-19T09:32:45;11.50;99.90
21403;DHT22;10862;51.886;17.078;2022-10-19T09:37:55;11.60;99.90
21403;DHT22;10862;51.886;17.078;2022-10-19T09:40:26;11.70;99.90
21403;DHT22;10862;51.886;17.078;2022-10-19T09:42:52;11.80;99.90
21403;DHT22;10862;51.886;17.078;2022-10-19T09:45:26;11.70;99.90
21403;DHT22;10862;51.886;17.078;2022-10-19T09:47:53;11.70;99.90
21403;DHT22;10862;51.886;17.078;2022-10-19T09:52:45;11.70;99.90
21403;DHT22;10862;51.886;17.078;2022-10-19T09:57:48;11.70;99.90
21403;DHT22;10862;51.886;17.078;2022-10-19T10:02:47;11.80;99.90
21403;DHT22;10862;51.886;17.078;2022-10-19T10:05:13;11.90;99.90
21403;DHT22;10862;51.886;17.078;2022-10-19T10:07:39;12.00;99.90
21403;DHT22;10862;51.886;17.078;2022-10-19T10:10:09;12.10;99.90
21403;DHT22;10862;51.886;17.078;2022-10-19T10:12:35;12.20;99.90
21403;DHT22;10862;51.886;17.078;2022-10-19T10:15:02;12.10;99.90
21403;DHT22;10862;51.886;17.078;2022-10-19T10:17:28;11.80;99.90
21403;DHT22;10862;51.886;17.078;2022-10-19T10:22:27;11.40;99.90
21403;DHT22;10862;51.886;17.078;2022-10-19T10:24:53;11.40;99.90
21403;DHT22;10862;51.886;17.078;2022-10-19T10:27:33;11.50;99.90
21403;DHT22;10862;51.886;17.078;2022-10-19T10:30:01;11.60;99.90
21403;DHT22;10862;51.886;17.078;2022-10-19T10:32:29;11.70;99.90
21403;DHT22;10862;51.886;17.078;2022-10-19T10:34:55;11.90;99.90
21403;DHT22;10862;51.886;17.078;2022-10-19T10:37:23;12.10;99.90
21403;DHT22;10862;51.886;17.078;2022-10-19T10:39:52;12.10;99.90
21403;DHT22;10862;51.886;17.078;2022-10-19T10:42:19;12.10;99.90
21403;DHT22;10862;51.886;17.078;2022-10-19T10:44:50;12.00;99.90
21403;DHT22;10862;51.886;17.078;2022-10-19T10:47:17;11.90;99.90
21403;DHT22;10862;51.886;17.078;2022-10-19T10:49:52;11.90;99.90
21403;DHT22;10862;51.886;17.078;2022-10-19T10:52:18;11.80;99.90
21403;DHT22;10862;51.886;17.078;2022-10-19T10:57:29;11.90;99.90
21403;DHT22;10862;51.886;17.078;2022-10-19T11:00:06;12.00;99.90
21403;DHT22;10862;51.886;17.078;2022-10-19T11:07:32;12.10;99.90
21403;DHT22;10862;51.886;17.078;2022-10-19T11:09:59;12.10;99.90
21403;DHT22;10862;51.886;17.078;2022-10-19T11:12:36;12.00;99.90
21403;DHT22;10862;51.886;17.078;2022-10-19T11:15:20;12.40;99.90
21403;DHT22;10862;51.886;17.078;2022-10-19T11:17:58;12.40;99.90
21403;DHT22;10862;51.886;17.078;2022-10-19T11:20:25;12.70;99.90
21403;DHT22;10862;51.886;17.078;2022-10-19T11:22:54;12.60;99.90
21403;DHT22;10862;51.886;17.078;2022-10-19T11:30:40;12.60;99.90
21403;DHT22;10862;51.886;17.078;2022-10-19T11:38:26;12.40;99.90
21403;DHT22;10862;51.886;17.078;2022-10-19T11:46:12;12.20;99.90
21403;DHT22;10862;51.886;17.078;2022-10-19T11:51:17;12.20;99.90
21403;DHT22;10862;51.886;17.078;2022-10-19T11:54:00;12.30;99.90
21403;DHT22;10862;51.886;17.078;2022-10-19T11:56:38;12.40;99.90
21403;DHT22;10862;51.886;17.078;2022-10-19T12:09:30;12.40;99.90
21403;DHT22;10862;51.886;17.078;2022-10-19T12:14:29;12.90;99.90
21403;DHT22;10862;51.886;17.078;2022-10-19T12:16:56;12.80;99.90
21403;DHT22;10862;51.886;17.078;2022-10-19T12:19:25;13.00;99.90
21403;DHT22;10862;51.886;17.078;2022-10-19T12:21:57;12.80;99.90
21403;DHT22;10862;51.886;17.078;2022-10-19T12:24:24;12.80;99.90
21403;DHT22;10862;51.886;17.078;2022-10-19T12:26:50;12.80;99.90
21403;DHT22;10862;51.886;17.078;2022-10-19T12:29:20;12.40;99.90
21403;DHT22;10862;51.886;17.078;2022-10-19T12:31:47;12.00;99.90
21403;DHT22;10862;51.886;17.078;2022-10-19T12:36:53;11.50;99.90
21403;DHT22;10862;51.886;17.078;2022-10-19T12:41:55;11.30;99.90
21403;DHT22;10862;51.886;17.078;2022-10-19T12:46:59;11.60;99.90
21403;DHT22;10862;51.886;17.078;2022-10-19T12:52:08;11.60;99.90
21403;DHT22;10862;51.886;17.078;2022-10-19T12:54:34;11.70;99.90
21403;DHT22;10862;51.886;17.078;2022-10-19T12:57:02;11.90;99.90
21403;DHT22;10862;51.886;17.078;2022-10-19T12:59:29;12.00;99.90
21403;DHT22;10862;51.886;17.078;2022-10-19T13:01:55;12.20;99.90
21403;DHT22;10862;51.886;17.078;2022-10-19T13:04:22;12.30;99.90
21403;DHT22;10862;51.886;17.078;2022-10-19T13:06:49;12.30;99.90
21403;DHT22;10862;51.886;17.078;2022-10-19T13:09:31;12.50;99.90
21403;DHT22;10862;51.886;17.078;2022-10-19T13:15:03;12.50;99.90
21403;DHT22;10862;51.886;17.078;2022-10-19T13:22:49;12.60;99.90
21403;DHT22;10862;51.886;17.078;2022-10-19T13:27:44;12.50;99.90
21403;DHT22;10862;51.886;17.078;2022-10-19T13:32:55;12.50;99.90
21403;DHT22;10862;51.886;17.078;2022-10-19T13:37:49;12.70;99.90
21403;DHT22;10862;51.886;17.078;2022-10-19T13:40:31;12.90;99.90
21403;DHT22;10862;51.886;17.078;2022-10-19T13:42:57;13.30;99.90
21403;DHT22;10862;51.886;17.078;2022-10-19T13:45:22;13.20;99.90
21403;DHT22;10862;51.886;17.078;2022-10-19T13:47:50;13.50;99.90
21403;DHT22;10862;51.886;17.078;2022-10-19T13:50:36;14.00;99.90
21403;DHT22;10862;51.886;17.078;2022-10-19T14:11:04;13.10;99.90
21403;DHT22;10862;51.886;17.078;2022-10-19T14:13:30;13.50;99.90
21403;DHT22;10862;51.886;17.078;2022-10-19T14:15:56;13.90;99.90
21403;DHT22;10862;51.886;17.078;2022-10-19T14:18:26;14.10;99.90
21403;DHT22;10862;51.886;17.078;2022-10-19T14:20:56;14.00;99.90
21403;DHT22;10862;51.886;17.078;2022-10-19T14:23:23;13.30;99.90
21403;DHT22;10862;51.886;17.078;2022-10-19T14:25:50;13.30;99.90
21403;DHT22;10862;51.886;17.078;2022-10-19T14:28:16;13.30;99.90
21403;DHT22;10862;51.886;17.078;2022-10-19T14:30:41;13.00;99.90
21403;DHT22;10862;51.886;17.078;2022-10-19T14:33:08;12.70;99.90
21403;DHT22;10862;51.886;17.078;2022-10-19T14:35:38;12.60;99.90
21403;DHT22;10862;51.886;17.078;2022-10-19T14:38:04;12.50;99.90
21403;DHT22;10862;51.886;17.078;2022-10-19T14:40:31;13.00;99.90
21403;DHT22;10862;51.886;17.078;2022-10-19T14:42:57;13.10;99.90
21403;DHT22;10862;51.886;17.078;2022-10-19T14:45:24;12.70;99.90
21403;DHT22;10862;51.886;17.078;2022-10-19T14:47:51;12.80;99.90
21403;DHT22;10862;51.886;17.078;2022-10-19T14:50:17;13.10;99.90
21403;DHT22;10862;51.886;17.078;2022-10-19T14:52:43;13.30;99.90
21403;DHT22;10862;51.886;17.078;2022-10-19T14:55:12;13.50;99.90
21403;DHT22;10862;51.886;17.078;2022-10-19T14:57:38;13.50;99.90
21403;DHT22;10862;51.886;17.078;2022-10-19T15:00:06;13.10;99.90
21403;DHT22;10862;51.886;17.078;2022-10-19T15:02:36;12.70;99.90
21403;DHT22;10862;51.886;17.078;2022-10-19T15:05:03;12.30;99.90
21403;DHT22;10862;51.886;17.078;2022-10-19T15:09:59;12.00;99.90
21403;DHT22;10862;51.886;17.078;2022-10-19T15:12:27;12.00;99.90
21403;DHT22;10862;51.886;17.078;2022-10-19T15:14:53;11.80;99.90
21403;DHT22;10862;51.886;17.078;2022-10-19T15:19:50;11.70;99.90
21403;DHT22;10862;51.886;17.078;2022-10-19T15:24:55;11.60;99.90
21403;DHT22;10862;51.886;17.078;2022-10-19T15:27:21;11.50;99.90
21403;DHT22;10862;51.886;17.078;2022-10-19T15:29:54;11.40;99.90
21403;DHT22;10862;51.886;17.078;2022-10-19T15:32:22;11.40;99.90
21403;DHT22;10862;51.886;17.078;2022-10-19T15:34:47;11.50;99.90
21403;DHT22;10862;51.886;17.078;2022-10-19T15:37:19;11.30;99.90
21403;DHT22;10862;51.886;17.078;2022-10-19T15:39:45;11.20;99.90
21403;DHT22;10862;51.886;17.078;2022-10-19T15:44:46;11.10;99.90
21403;DHT22;10862;51.886;17.078;2022-10-19T15:52:18;11.00;99.90
21403;DHT22;10862;51.886;17.078;2022-10-19T15:54:48;10.90;99.90
21403;DHT22;10862;51.886;17.078;2022-10-19T15:57:46;10.80;99.90
21403;DHT22;10862;51.886;17.078;2022-10-19T16:00:12;10.80;99.90
21403;DHT22;10862;51.886;17.078;2022-10-19T16:02:38;10.80;99.90
21403;DHT22;10862;51.886;17.078;2022-10-19T16:05:04;10.70;99.90
21403;DHT22;10862;51.886;17.078;2022-10-19T16:07:30;10.60;99.90
21403;DHT22;10862;51.886;17.078;2022-10-19T16:09:56;10.70;99.90
21403;DHT22;10862;51.886;17.078;2022-10-19T16:12:23;10.50;99.90
21403;DHT22;10862;51.886;17.078;2022-10-19T16:14:49;10.40;99.90
21403;DHT22;10862;51.886;17.078;2022-10-19T16:17:14;10.40;99.90
21403;DHT22;10862;51.886;17.078;2022-10-19T16:19:40;10.20;99.90
21403;DHT22;10862;51.886;17.078;2022-10-19T16:22:06;10.30;99.90
21403;DHT22;10862;51.886;17.078;2022-10-19T16:24:31;10.30;99.90
21403;DHT22;10862;51.886;17.078;2022-10-19T16:26:57;10.30;99.90
21403;DHT22;10862;51.886;17.078;2022-10-19T16:29:22;10.10;99.90
21403;DHT22;10862;51.886;17.078;2022-10-19T16:31:48;10.20;99.90
21403;DHT22;10862;51.886;17.078;2022-10-19T16:34:13;10.10;99.90
21403;DHT22;10862;51.886;17.078;2022-10-19T16:36:39;10.10;99.90
21403;DHT22;10862;51.886;17.078;2022-10-19T16:39:04;10.10;99.90
21403;DHT22;10862;51.886;17.078;2022-10-19T16:41:30;10.00;99.90
21403;DHT22;10862;51.886;17.078;2022-10-19T16:43:56;10.00;99.90
21403;DHT22;10862;51.886;17.078;2022-10-19T16:46:22;9.90;99.90
21403;DHT22;10862;51.886;17.078;2022-10-19T16:48:48;9.90;99.90
21403;DHT22;10862;51.886;17.078;2022-10-19T16:51:56;10.10;99.90
21403;DHT22;10862;51.886;17.078;2022-10-19T16:54:03;9.90;99.90
21403;DHT22;10862;51.886;17.078;2022-10-19T16:56:29;9.80;99.90
21403;DHT22;10862;51.886;17.078;2022-10-19T16:58:56;9.80;99.90
21403;DHT22;10862;51.886;17.078;2022-10-19T17:01:22;9.80;99.90
21403;DHT22;10862;51.886;17.078;2022-10-19T17:03:48;9.80;99.90
21403;DHT22;10862;51.886;17.078;2022-10-19T17:06:16;9.80;99.90
21403;DHT22;10862;51.886;17.078;2022-10-19T17:08:42;9.70;99.90
21403;DHT22;10862;51.886;17.078;2022-10-19T17:11:11;9.80;99.90
21403;DHT22;10862;51.886;17.078;2022-10-19T17:13:37;9.60;99.90
21403;DHT22;10862;51.886;17.078;2022-10-19T17:16:03;9.60;99.90
21403;DHT22;10862;51.886;17.078;2022-10-19T17:18:28;9.60;99.90
21403;DHT22;10862;51.886;17.078;2022-10-19T17:20:59;9.50;99.90
21403;DHT22;10862;51.886;17.078;2022-10-19T17:23:25;9.50;99.90
21403;DHT22;10862;51.886;17.078;2022-10-19T17:25:50;9.40;99.90
21403;DHT22;10862;51.886;17.078;2022-10-19T17:28:16;9.30;99.90
21403;DHT22;10862;51.886;17.078;2022-10-19T17:30:41;9.30;99.90
21403;DHT22;10862;51.886;17.078;2022-10-19T17:33:07;9.20;99.90